sensor_id;sensor_type;location;lat;lon;timestamp;temperature;humidity
9157;DHT22;4613;48.392;9.998;2023-07-02T00:00:12;18.60;99.90
9157;DHT22;4613;48.392;9.998;2023-07-02T00:03:02;18.70;99.90
9157;DHT22;4613;48.392;9.998;2023-07-02T00:05:51;18.60;99.90
9157;DHT22;4613;48.392;9.998;2023-07-02T00:08:43;18.00;99.90
9157;DHT22;4613;48.392;9.998;2023-07-02T00:11:33;18.10;99.90
9157;DHT22;4613;48.392;9.998;2023-07-02T00:14:22;17.90;99.90
9157;DHT22;4613;48.392;9.998;2023-07-02T00:17:11;17.90;99.90
9157;DHT22;4613;48.392;9.998;2023-07-02T00:20:03;17.80;99.90
9157;DHT22;4613;48.392;9.998;2023-07-02T00:22:53;17.60;99.90
9157;DHT22;4613;48.392;9.998;2023-07-02T00:25:43;17.90;99.90
9157;DHT22;4613;48.392;9.998;2023-07-02T00:28:32;17.70;99.90
9157;DHT22;4613;48.392;9.998;2023-07-02T00:31:22;17.70;99.90
9157;DHT22;4613;48.392;9.998;2023-07-02T00:34:12;17.90;99.90
9157;DHT22;4613;48.392;9.998;2023-07-02T00:37:01;17.80;99.90
9157;DHT22;4613;48.392;9.998;2023-07-02T00:39:50;17.80;99.90
9157;DHT22;4613;48.392;9.998;2023-07-02T00:42:39;17.80;99.90
9157;DHT22;4613;48.392;9.998;2023-07-02T00:45:28;17.80;99.90
9157;DHT22;4613;48.392;9.998;2023-07-02T00:48:18;17.90;99.90
9157;DHT22;4613;48.392;9.998;2023-07-02T00:51:08;18.10;99.90
9157;DHT22;4613;48.392;9.998;2023-07-02T00:53:59;18.30;99.90
9157;DHT22;4613;48.392;9.998;2023-07-02T00:56:48;18.50;99.90
9157;DHT22;4613;48.392;9.998;2023-07-02T00:59:38;18.20;99.90
9157;DHT22;4613;48.392;9.998;2023-07-02T01:02:27;18.30;99.90
9157;DHT22;4613;48.392;9.998;2023-07-02T01:05:20;18.30;99.90
9157;DHT22;4613;48.392;9.998;2023-07-02T01:08:11;18.50;99.90
9157;DHT22;4613;48.392;9.998;2023-07-02T01:11:01;18.40;99.90
9157;DHT22;4613;48.392;9.998;2023-07-02T01:13:51;18.50;99.90
9157;DHT22;4613;48.392;9.998;2023-07-02T01:16:43;18.40;99.90
9157;DHT22;4613;48.392;9.998;2023-07-02T01:23:01;18.40;99.90
9157;DHT22;4613;48.392;9.998;2023-07-02T01:25:52;18.30;99.90
9157;DHT22;4613;48.392;9.998;2023-07-02T01:28:42;18.20;99.90
9157;DHT22;4613;48.392;9.998;2023-07-02T01:31:31;18.00;99.90
9157;DHT22;4613;48.392;9.998;2023-07-02T01:34:21;18.30;99.90
9157;DHT22;4613;48.392;9.998;2023-07-02T01:37:10;18.40;99.90
9157;DHT22;4613;48.392;9.998;2023-07-02T01:40:00;18.20;99.90
9157;DHT22;4613;48.392;9.998;2023-07-02T01:42:49;18.20;99.90
9157;DHT22;4613;48.392;9.998;2023-07-02T01:45:38;18.40;99.90
9157;DHT22;4613;48.392;9.998;2023-07-02T01:48:28;18.40;99.90
9157;DHT22;4613;48.392;9.998;2023-07-02T01:51:17;18.20;99.90
9157;DHT22;4613;48.392;9.998;2023-07-02T01:54:06;18.40;99.90
9157;DHT22;4613;48.392;9.998;2023-07-02T01:56:56;18.20;99.90
9157;DHT22;4613;48.392;9.998;2023-07-02T01:59:46;18.30;99.90
9157;DHT22;4613;48.392;9.998;2023-07-02T02:02:35;18.30;99.90
9157;DHT22;4613;48.392;9.998;2023-07-02T02:05:24;18.40;99.90
9157;DHT22;4613;48.392;9.998;2023-07-02T02:08:13;18.40;99.90
9157;DHT22;4613;48.392;9.998;2023-07-02T02:11:03;18.40;99.90
9157;DHT22;4613;48.392;9.998;2023-07-02T02:13:52;18.30;99.90
9157;DHT22;4613;48.392;9.998;2023-07-02T02:16:43;18.20;99.90
9157;DHT22;4613;48.392;9.998;2023-07-02T02:19:34;18.10;99.90
9157;DHT22;4613;48.392;9.998;2023-07-02T02:22:23;18.20;99.90
9157;DHT22;4613;48.392;9.998;2023-07-02T02:25:13;18.30;99.90
9157;DHT22;4613;48.392;9.998;2023-07-02T02:28:02;18.30;99.90
9157;DHT22;4613;48.392;9.998;2023-07-02T02:30:52;18.10;99.90
9157;DHT22;4613;48.392;9.998;2023-07-02T02:33:43;17.80;99.90
9157;DHT22;4613;48.392;9.998;2023-07-02T02:36:33;17.80;99.90
9157;DHT22;4613;48.392;9.998;2023-07-02T02:39:23;18.10;99.90
9157;DHT22;4613;48.392;9.998;2023-07-02T02:42:14;18.30;99.90
9157;DHT22;4613;48.392;9.998;2023-07-02T02:45:03;18.20;99.90
9157;DHT22;4613;48.392;9.998;2023-07-02T02:47:53;18.20;99.90
9157;DHT22;4613;48.392;9.998;2023-07-02T02:50:42;18.10;99.90
9157;DHT22;4613;48.392;9.998;2023-07-02T02:53:33;18.30;99.90
9157;DHT22;4613;48.392;9.998;2023-07-02T02:56:22;18.30;99.90
9157;DHT22;4613;48.392;9.998;2023-07-02T02:59:11;18.20;99.90
9157;DHT22;4613;48.392;9.998;2023-07-02T03:02:00;17.90;99.90
9157;DHT22;4613;48.392;9.998;2023-07-02T03:04:49;17.60;99.90
9157;DHT22;4613;48.392;9.998;2023-07-02T03:07:38;17.40;99.90
9157;DHT22;4613;48.392;9.998;2023-07-02T03:10:27;17.40;99.90
9157;DHT22;4613;48.392;9.998;2023-07-02T03:13:17;17.30;99.90
9157;DHT22;4613;48.392;9.998;2023-07-02T03:16:06;17.30;99.90
9157;DHT22;4613;48.392;9.998;2023-07-02T03:18:56;17.40;99.90
9157;DHT22;4613;48.392;9.998;2023-07-02T03:21:45;17.60;99.90
9157;DHT22;4613;48.392;9.998;2023-07-02T03:24:34;17.60;99.90
9157;DHT22;4613;48.392;9.998;2023-07-02T03:27:23;17.70;99.90
9157;DHT22;4613;48.392;9.998;2023-07-02T03:30:12;17.50;99.90
9157;DHT22;4613;48.392;9.998;2023-07-02T03:33:01;17.50;99.90
9157;DHT22;4613;48.392;9.998;2023-07-02T03:35:51;17.40;99.90
9157;DHT22;4613;48.392;9.998;2023-07-02T03:38:40;17.30;99.90
9157;DHT22;4613;48.392;9.998;2023-07-02T03:41:30;17.50;99.90
9157;DHT22;4613;48.392;9.998;2023-07-02T03:44:19;17.00;99.90
9157;DHT22;4613;48.392;9.998;2023-07-02T03:47:09;17.00;99.90
9157;DHT22;4613;48.392;9.998;2023-07-02T03:50:01;17.10;99.90
9157;DHT22;4613;48.392;9.998;2023-07-02T03:52:50;16.90;99.90
9157;DHT22;4613;48.392;9.998;2023-07-02T03:55:40;17.20;99.90
9157;DHT22;4613;48.392;9.998;2023-07-02T03:58:30;17.30;99.90
9157;DHT22;4613;48.392;9.998;2023-07-02T04:01:19;17.10;99.90
9157;DHT22;4613;48.392;9.998;2023-07-02T04:04:08;17.30;99.90
9157;DHT22;4613;48.392;9.998;2023-07-02T04:06:57;17.00;99.90
9157;DHT22;4613;48.392;9.998;2023-07-02T04:09:46;16.70;99.90
9157;DHT22;4613;48.392;9.998;2023-07-02T04:12:35;17.00;99.90
9157;DHT22;4613;48.392;9.998;2023-07-02T04:15:24;17.00;99.90
9157;DHT22;4613;48.392;9.998;2023-07-02T04:18:15;17.00;99.90
9157;DHT22;4613;48.392;9.998;2023-07-02T04:21:04;17.00;99.90
9157;DHT22;4613;48.392;9.998;2023-07-02T04:23:53;17.20;99.90
9157;DHT22;4613;48.392;9.998;2023-07-02T04:26:43;17.30;99.90
9157;DHT22;4613;48.392;9.998;2023-07-02T04:29:32;17.30;99.90
9157;DHT22;4613;48.392;9.998;2023-07-02T04:32:21;17.40;99.90
9157;DHT22;4613;48.392;9.998;2023-07-02T04:35:10;17.10;99.90
9157;DHT22;4613;48.392;9.998;2023-07-02T04:38:03;16.80;99.90
9157;DHT22;4613;48.392;9.998;2023-07-02T04:40:52;16.90;99.90
9157;DHT22;4613;48.392;9.998;2023-07-02T04:43:41;17.10;99.90
9157;DHT22;4613;48.392;9.998;2023-07-02T04:46:30;17.10;99.90
9157;DHT22;4613;48.392;9.998;2023-07-02T04:49:19;17.00;99.90
9157;DHT22;4613;48.392;9.998;2023-07-02T04:52:09;17.00;99.90
9157;DHT22;4613;48.392;9.998;2023-07-02T04:54:58;17.00;99.90
9157;DHT22;4613;48.392;9.998;2023-07-02T04:57:47;17.00;99.90
9157;DHT22;4613;48.392;9.998;2023-07-02T05:00:36;17.10;99.90
9157;DHT22;4613;48.392;9.998;2023-07-02T05:03:26;17.10;99.90
9157;DHT22;4613;48.392;9.998;2023-07-02T05:06:15;17.00;99.90
9157;DHT22;4613;48.392;9.998;2023-07-02T05:09:05;17.00;99.90
9157;DHT22;4613;48.392;9.998;2023-07-02T05:11:54;17.00;99.90
9157;DHT22;4613;48.392;9.998;2023-07-02T05:14:43;17.10;99.90
9157;DHT22;4613;48.392;9.998;2023-07-02T05:17:32;17.10;99.90
9157;DHT22;4613;48.392;9.998;2023-07-02T05:20:23;17.00;99.90
9157;DHT22;4613;48.392;9.998;2023-07-02T05:23:13;16.90;99.90
9157;DHT22;4613;48.392;9.998;2023-07-02T05:26:02;17.10;99.90
9157;DHT22;4613;48.392;9.998;2023-07-02T05:28:52;17.00;99.90
9157;DHT22;4613;48.392;9.998;2023-07-02T05:31:42;16.80;99.90
9157;DHT22;4613;48.392;9.998;2023-07-02T05:34:31;17.00;99.90
9157;DHT22;4613;48.392;9.998;2023-07-02T05:37:20;17.20;99.90
9157;DHT22;4613;48.392;9.998;2023-07-02T05:40:10;17.20;99.90
9157;DHT22;4613;48.392;9.998;2023-07-02T05:42:59;17.10;99.90
9157;DHT22;4613;48.392;9.998;2023-07-02T05:45:50;17.10;99.90
9157;DHT22;4613;48.392;9.998;2023-07-02T05:48:40;17.10;99.90
9157;DHT22;4613;48.392;9.998;2023-07-02T05:51:30;16.70;99.90
9157;DHT22;4613;48.392;9.998;2023-07-02T05:54:22;17.00;99.90
9157;DHT22;4613;48.392;9.998;2023-07-02T05:57:11;17.20;99.90
9157;DHT22;4613;48.392;9.998;2023-07-02T06:00:00;17.30;99.90
9157;DHT22;4613;48.392;9.998;2023-07-02T06:02:49;17.20;99.90
9157;DHT22;4613;48.392;9.998;2023-07-02T06:05:38;17.50;99.90
9157;DHT22;4613;48.392;9.998;2023-07-02T06:08:27;17.50;99.90
9157;DHT22;4613;48.392;9.998;2023-07-02T06:11:16;17.70;99.90
9157;DHT22;4613;48.392;9.998;2023-07-02T06:14:06;18.20;99.90
9157;DHT22;4613;48.392;9.998;2023-07-02T06:16:55;18.20;99.90
9157;DHT22;4613;48.392;9.998;2023-07-02T06:19:46;17.90;99.90
9157;DHT22;4613;48.392;9.998;2023-07-02T06:22:36;17.90;99.90
9157;DHT22;4613;48.392;9.998;2023-07-02T06:25:25;17.50;99.90
9157;DHT22;4613;48.392;9.998;2023-07-02T06:28:15;17.70;99.90
9157;DHT22;4613;48.392;9.998;2023-07-02T06:31:04;17.90;99.90
9157;DHT22;4613;48.392;9.998;2023-07-02T06:33:53;18.40;99.90
9157;DHT22;4613;48.392;9.998;2023-07-02T06:36:42;18.70;99.90
9157;DHT22;4613;48.392;9.998;2023-07-02T06:39:32;18.60;99.90
9157;DHT22;4613;48.392;9.998;2023-07-02T06:42:21;18.70;99.90
9157;DHT22;4613;48.392;9.998;2023-07-02T06:45:10;18.50;99.90
9157;DHT22;4613;48.392;9.998;2023-07-02T06:47:59;18.40;99.90
9157;DHT22;4613;48.392;9.998;2023-07-02T06:50:48;18.90;99.90
9157;DHT22;4613;48.392;9.998;2023-07-02T06:53:37;19.20;99.90
9157;DHT22;4613;48.392;9.998;2023-07-02T06:56:26;19.00;99.90
9157;DHT22;4613;48.392;9.998;2023-07-02T06:59:22;19.20;99.90
9157;DHT22;4613;48.392;9.998;2023-07-02T07:02:12;19.20;99.90
9157;DHT22;4613;48.392;9.998;2023-07-02T07:05:01;18.90;99.90
9157;DHT22;4613;48.392;9.998;2023-07-02T07:07:53;19.00;99.90
9157;DHT22;4613;48.392;9.998;2023-07-02T07:10:42;19.30;99.90
9157;DHT22;4613;48.392;9.998;2023-07-02T07:13:33;19.00;99.90
9157;DHT22;4613;48.392;9.998;2023-07-02T07:16:23;19.10;99.90
9157;DHT22;4613;48.392;9.998;2023-07-02T07:19:12;19.00;99.90
9157;DHT22;4613;48.392;9.998;2023-07-02T07:22:02;19.50;99.90
9157;DHT22;4613;48.392;9.998;2023-07-02T07:24:51;19.70;99.90
9157;DHT22;4613;48.392;9.998;2023-07-02T07:27:40;19.50;99.90
9157;DHT22;4613;48.392;9.998;2023-07-02T07:30:30;19.20;99.90
9157;DHT22;4613;48.392;9.998;2023-07-02T07:33:19;19.10;99.90
9157;DHT22;4613;48.392;9.998;2023-07-02T07:36:08;18.90;99.90
9157;DHT22;4613;48.392;9.998;2023-07-02T07:38:58;18.70;99.90
9157;DHT22;4613;48.392;9.998;2023-07-02T07:41:47;18.70;99.90
9157;DHT22;4613;48.392;9.998;2023-07-02T07:44:37;19.00;99.90
9157;DHT22;4613;48.392;9.998;2023-07-02T07:47:26;19.00;99.90
9157;DHT22;4613;48.392;9.998;2023-07-02T07:50:16;19.20;99.90
9157;DHT22;4613;48.392;9.998;2023-07-02T07:53:05;19.30;99.90
9157;DHT22;4613;48.392;9.998;2023-07-02T07:55:54;19.60;99.90
9157;DHT22;4613;48.392;9.998;2023-07-02T07:58:43;19.80;99.90
9157;DHT22;4613;48.392;9.998;2023-07-02T08:01:33;19.70;99.90
9157;DHT22;4613;48.392;9.998;2023-07-02T08:04:22;19.50;99.90
9157;DHT22;4613;48.392;9.998;2023-07-02T08:07:11;19.80;99.90
9157;DHT22;4613;48.392;9.998;2023-07-02T08:10:01;19.90;99.90
9157;DHT22;4613;48.392;9.998;2023-07-02T08:12:51;19.80;99.90
9157;DHT22;4613;48.392;9.998;2023-07-02T08:15:43;19.80;99.90
9157;DHT22;4613;48.392;9.998;2023-07-02T08:18:32;20.20;99.90
9157;DHT22;4613;48.392;9.998;2023-07-02T08:21:21;20.20;99.90
9157;DHT22;4613;48.392;9.998;2023-07-02T08:24:10;20.20;99.90
9157;DHT22;4613;48.392;9.998;2023-07-02T08:26:59;19.70;99.90
9157;DHT22;4613;48.392;9.998;2023-07-02T08:29:51;19.70;99.90
9157;DHT22;4613;48.392;9.998;2023-07-02T08:32:40;20.20;99.90
9157;DHT22;4613;48.392;9.998;2023-07-02T08:35:29;20.30;99.90
9157;DHT22;4613;48.392;9.998;2023-07-02T08:38:18;20.10;99.90
9157;DHT22;4613;48.392;9.998;2023-07-02T08:41:07;19.70;99.90
9157;DHT22;4613;48.392;9.998;2023-07-02T08:43:58;19.80;99.90
9157;DHT22;4613;48.392;9.998;2023-07-02T08:46:47;20.20;99.90
9157;DHT22;4613;48.392;9.998;2023-07-02T08:49:41;20.40;99.90
9157;DHT22;4613;48.392;9.998;2023-07-02T08:52:30;20.20;99.90
9157;DHT22;4613;48.392;9.998;2023-07-02T08:55:19;20.50;99.90
9157;DHT22;4613;48.392;9.998;2023-07-02T08:58:08;20.70;99.90
9157;DHT22;4613;48.392;9.998;2023-07-02T09:01:24;21.30;99.90
9157;DHT22;4613;48.392;9.998;2023-07-02T09:04:18;21.40;99.90
9157;DHT22;4613;48.392;9.998;2023-07-02T09:07:09;21.60;99.90
9157;DHT22;4613;48.392;9.998;2023-07-02T09:09:58;22.30;99.90
9157;DHT22;4613;48.392;9.998;2023-07-02T09:12:48;22.00;99.90
9157;DHT22;4613;48.392;9.998;2023-07-02T09:15:40;22.10;99.90
9157;DHT22;4613;48.392;9.998;2023-07-02T09:18:30;21.60;99.90
9157;DHT22;4613;48.392;9.998;2023-07-02T09:21:19;21.20;99.90
9157;DHT22;4613;48.392;9.998;2023-07-02T09:24:15;21.10;99.90
9157;DHT22;4613;48.392;9.998;2023-07-02T09:27:05;21.20;99.90
9157;DHT22;4613;48.392;9.998;2023-07-02T09:29:54;22.20;99.90
9157;DHT22;4613;48.392;9.998;2023-07-02T09:32:45;22.80;99.90
9157;DHT22;4613;48.392;9.998;2023-07-02T09:35:34;22.70;99.90
9157;DHT22;4613;48.392;9.998;2023-07-02T09:38:23;23.50;99.90
9157;DHT22;4613;48.392;9.998;2023-07-02T09:41:13;23.70;99.90
9157;DHT22;4613;48.392;9.998;2023-07-02T09:44:03;23.40;99.90
9157;DHT22;4613;48.392;9.998;2023-07-02T09:47:02;23.20;99.90
9157;DHT22;4613;48.392;9.998;2023-07-02T09:50:02;22.40;99.90
9157;DHT22;4613;48.392;9.998;2023-07-02T09:52:52;22.60;99.90
9157;DHT22;4613;48.392;9.998;2023-07-02T09:55:44;22.30;99.90
9157;DHT22;4613;48.392;9.998;2023-07-02T09:58:33;22.30;99.90
9157;DHT22;4613;48.392;9.998;2023-07-02T10:01:22;22.10;99.90
9157;DHT22;4613;48.392;9.998;2023-07-02T10:04:16;21.80;99.90
9157;DHT22;4613;48.392;9.998;2023-07-02T10:07:07;21.60;99.90
9157;DHT22;4613;48.392;9.998;2023-07-02T10:09:57;22.80;99.90
9157;DHT22;4613;48.392;9.998;2023-07-02T10:12:46;23.70;99.90
9157;DHT22;4613;48.392;9.998;2023-07-02T10:15:36;24.00;99.90
9157;DHT22;4613;48.392;9.998;2023-07-02T10:18:29;24.10;99.90
9157;DHT22;4613;48.392;9.998;2023-07-02T10:21:18;24.40;99.90
9157;DHT22;4613;48.392;9.998;2023-07-02T10:24:12;24.70;99.90
9157;DHT22;4613;48.392;9.998;2023-07-02T10:27:02;23.70;99.90
9157;DHT22;4613;48.392;9.998;2023-07-02T10:29:54;23.50;99.90
9157;DHT22;4613;48.392;9.998;2023-07-02T10:32:44;23.90;99.90
9157;DHT22;4613;48.392;9.998;2023-07-02T10:35:34;23.50;99.90
9157;DHT22;4613;48.392;9.998;2023-07-02T10:38:24;23.70;99.90
9157;DHT22;4613;48.392;9.998;2023-07-02T10:41:23;24.10;99.90
9157;DHT22;4613;48.392;9.998;2023-07-02T10:44:13;23.80;98.40
9157;DHT22;4613;48.392;9.998;2023-07-02T10:47:03;23.60;98.10
9157;DHT22;4613;48.392;9.998;2023-07-02T10:49:53;23.80;99.70
9157;DHT22;4613;48.392;9.998;2023-07-02T10:52:42;23.80;99.90
9157;DHT22;4613;48.392;9.998;2023-07-02T10:55:31;23.50;99.90
9157;DHT22;4613;48.392;9.998;2023-07-02T10:58:20;23.40;99.90
9157;DHT22;4613;48.392;9.998;2023-07-02T11:01:10;23.70;99.90
9157;DHT22;4613;48.392;9.998;2023-07-02T11:04:03;23.90;99.20
9157;DHT22;4613;48.392;9.998;2023-07-02T11:06:54;24.20;98.90
9157;DHT22;4613;48.392;9.998;2023-07-02T11:09:50;24.50;98.60
9157;DHT22;4613;48.392;9.998;2023-07-02T11:12:39;24.10;97.70
9157;DHT22;4613;48.392;9.998;2023-07-02T11:15:35;24.20;97.90
9157;DHT22;4613;48.392;9.998;2023-07-02T11:18:29;23.90;96.70
9157;DHT22;4613;48.392;9.998;2023-07-02T11:21:19;24.20;96.20
9157;DHT22;4613;48.392;9.998;2023-07-02T11:24:08;24.40;94.80
9157;DHT22;4613;48.392;9.998;2023-07-02T11:26:59;24.40;94.10
9157;DHT22;4613;48.392;9.998;2023-07-02T11:29:59;24.40;93.60
9157;DHT22;4613;48.392;9.998;2023-07-02T11:32:53;24.50;93.10
9157;DHT22;4613;48.392;9.998;2023-07-02T11:35:43;24.60;92.60
9157;DHT22;4613;48.392;9.998;2023-07-02T11:38:33;24.20;92.20
9157;DHT22;4613;48.392;9.998;2023-07-02T11:41:23;24.20;92.30
9157;DHT22;4613;48.392;9.998;2023-07-02T11:44:12;24.20;91.90
9157;DHT22;4613;48.392;9.998;2023-07-02T11:47:02;23.70;92.00
9157;DHT22;4613;48.392;9.998;2023-07-02T11:49:52;23.90;92.40
9157;DHT22;4613;48.392;9.998;2023-07-02T11:52:41;23.50;92.70
9157;DHT22;4613;48.392;9.998;2023-07-02T11:55:30;23.70;91.10
9157;DHT22;4613;48.392;9.998;2023-07-02T11:58:19;23.90;91.50
9157;DHT22;4613;48.392;9.998;2023-07-02T12:01:09;24.30;91.00
9157;DHT22;4613;48.392;9.998;2023-07-02T12:03:59;24.40;90.90
9157;DHT22;4613;48.392;9.998;2023-07-02T12:06:48;24.70;90.60
9157;DHT22;4613;48.392;9.998;2023-07-02T12:09:37;24.50;90.50
9157;DHT22;4613;48.392;9.998;2023-07-02T12:12:27;24.40;91.20
9157;DHT22;4613;48.392;9.998;2023-07-02T12:15:15;24.40;91.40
9157;DHT22;4613;48.392;9.998;2023-07-02T12:18:05;24.40;90.80
9157;DHT22;4613;48.392;9.998;2023-07-02T12:21:03;24.50;90.40
9157;DHT22;4613;48.392;9.998;2023-07-02T12:23:52;24.50;90.40
9157;DHT22;4613;48.392;9.998;2023-07-02T12:26:42;24.60;90.10
9157;DHT22;4613;48.392;9.998;2023-07-02T12:29:32;24.50;89.60
9157;DHT22;4613;48.392;9.998;2023-07-02T12:32:21;24.50;89.80
9157;DHT22;4613;48.392;9.998;2023-07-02T12:35:11;24.60;90.10
9157;DHT22;4613;48.392;9.998;2023-07-02T12:38:01;24.70;89.40
9157;DHT22;4613;48.392;9.998;2023-07-02T12:40:52;24.60;90.00
9157;DHT22;4613;48.392;9.998;2023-07-02T12:43:41;24.90;90.10
9157;DHT22;4613;48.392;9.998;2023-07-02T12:46:30;24.90;90.00
9157;DHT22;4613;48.392;9.998;2023-07-02T12:49:19;24.70;89.90
9157;DHT22;4613;48.392;9.998;2023-07-02T12:52:09;24.40;89.60
9157;DHT22;4613;48.392;9.998;2023-07-02T12:54:58;24.30;89.60
9157;DHT22;4613;48.392;9.998;2023-07-02T12:57:48;24.60;89.10
9157;DHT22;4613;48.392;9.998;2023-07-02T13:00:37;24.20;88.10
9157;DHT22;4613;48.392;9.998;2023-07-02T13:03:29;24.20;89.00
9157;DHT22;4613;48.392;9.998;2023-07-02T13:06:18;24.20;86.60
9157;DHT22;4613;48.392;9.998;2023-07-02T13:09:08;24.30;86.50
9157;DHT22;4613;48.392;9.998;2023-07-02T13:11:57;24.50;86.80
9157;DHT22;4613;48.392;9.998;2023-07-02T13:14:46;24.80;86.30
9157;DHT22;4613;48.392;9.998;2023-07-02T13:17:35;24.80;85.90
9157;DHT22;4613;48.392;9.998;2023-07-02T13:20:25;24.70;86.40
9157;DHT22;4613;48.392;9.998;2023-07-02T13:23:14;24.60;85.40
9157;DHT22;4613;48.392;9.998;2023-07-02T13:26:03;24.50;84.30
9157;DHT22;4613;48.392;9.998;2023-07-02T13:28:52;24.50;85.20
9157;DHT22;4613;48.392;9.998;2023-07-02T13:31:42;24.60;84.40
9157;DHT22;4613;48.392;9.998;2023-07-02T13:34:31;24.60;85.60
9157;DHT22;4613;48.392;9.998;2023-07-02T13:37:20;24.60;85.90
9157;DHT22;4613;48.392;9.998;2023-07-02T13:40:09;24.70;86.60
9157;DHT22;4613;48.392;9.998;2023-07-02T13:43:01;24.40;84.10
9157;DHT22;4613;48.392;9.998;2023-07-02T13:45:52;24.30;85.30
9157;DHT22;4613;48.392;9.998;2023-07-02T13:48:41;24.60;84.90
9157;DHT22;4613;48.392;9.998;2023-07-02T13:51:31;25.00;83.30
9157;DHT22;4613;48.392;9.998;2023-07-02T13:54:20;25.20;82.80
9157;DHT22;4613;48.392;9.998;2023-07-02T13:57:09;25.40;82.20
9157;DHT22;4613;48.392;9.998;2023-07-02T13:59:58;25.10;83.10
9157;DHT22;4613;48.392;9.998;2023-07-02T14:02:47;25.20;83.20
9157;DHT22;4613;48.392;9.998;2023-07-02T14:05:36;25.20;83.40
9157;DHT22;4613;48.392;9.998;2023-07-02T14:08:26;25.00;82.60
9157;DHT22;4613;48.392;9.998;2023-07-02T14:11:15;24.80;82.40
9157;DHT22;4613;48.392;9.998;2023-07-02T14:14:05;24.60;82.20
9157;DHT22;4613;48.392;9.998;2023-07-02T14:16:54;24.50;82.70
9157;DHT22;4613;48.392;9.998;2023-07-02T14:19:43;24.70;83.50
9157;DHT22;4613;48.392;9.998;2023-07-02T14:22:33;24.90;82.70
9157;DHT22;4613;48.392;9.998;2023-07-02T14:25:23;24.90;83.20
9157;DHT22;4613;48.392;9.998;2023-07-02T14:28:12;25.20;82.10
9157;DHT22;4613;48.392;9.998;2023-07-02T14:31:03;25.30;82.90
9157;DHT22;4613;48.392;9.998;2023-07-02T14:33:53;25.10;81.40
9157;DHT22;4613;48.392;9.998;2023-07-02T14:36:42;25.50;81.90
9157;DHT22;4613;48.392;9.998;2023-07-02T14:39:31;25.30;81.40
9157;DHT22;4613;48.392;9.998;2023-07-02T14:42:21;25.30;81.90
9157;DHT22;4613;48.392;9.998;2023-07-02T14:45:10;25.60;81.90
9157;DHT22;4613;48.392;9.998;2023-07-02T14:47:59;25.60;81.90
9157;DHT22;4613;48.392;9.998;2023-07-02T14:50:57;25.50;82.30
9157;DHT22;4613;48.392;9.998;2023-07-02T14:53:46;25.40;83.00
9157;DHT22;4613;48.392;9.998;2023-07-02T14:56:36;25.30;83.10
9157;DHT22;4613;48.392;9.998;2023-07-02T14:59:26;25.40;82.50
9157;DHT22;4613;48.392;9.998;2023-07-02T15:02:16;25.40;82.40
9157;DHT22;4613;48.392;9.998;2023-07-02T15:05:05;25.30;82.60
9157;DHT22;4613;48.392;9.998;2023-07-02T15:07:55;25.30;82.80
9157;DHT22;4613;48.392;9.998;2023-07-02T15:10:51;24.90;82.60
9157;DHT22;4613;48.392;9.998;2023-07-02T15:13:40;24.70;83.40
9157;DHT22;4613;48.392;9.998;2023-07-02T15:16:30;24.60;83.80
9157;DHT22;4613;48.392;9.998;2023-07-02T15:19:19;24.50;84.00
9157;DHT22;4613;48.392;9.998;2023-07-02T15:22:09;24.50;83.40
9157;DHT22;4613;48.392;9.998;2023-07-02T15:24:58;24.60;84.30
9157;DHT22;4613;48.392;9.998;2023-07-02T15:27:48;24.90;84.00
9157;DHT22;4613;48.392;9.998;2023-07-02T15:30:40;25.20;83.70
9157;DHT22;4613;48.392;9.998;2023-07-02T15:33:30;25.20;83.70
9157;DHT22;4613;48.392;9.998;2023-07-02T15:36:19;25.10;83.40
9157;DHT22;4613;48.392;9.998;2023-07-02T15:39:10;24.90;84.20
9157;DHT22;4613;48.392;9.998;2023-07-02T15:41:59;24.50;84.30
9157;DHT22;4613;48.392;9.998;2023-07-02T15:44:49;24.50;84.70
9157;DHT22;4613;48.392;9.998;2023-07-02T15:47:38;24.90;84.70
9157;DHT22;4613;48.392;9.998;2023-07-02T15:50:27;25.20;84.40
9157;DHT22;4613;48.392;9.998;2023-07-02T15:53:17;25.40;83.20
9157;DHT22;4613;48.392;9.998;2023-07-02T15:56:10;25.50;83.30
9157;DHT22;4613;48.392;9.998;2023-07-02T15:59:00;25.10;83.40
9157;DHT22;4613;48.392;9.998;2023-07-02T16:01:49;24.90;83.80
9157;DHT22;4613;48.392;9.998;2023-07-02T16:04:39;24.70;83.80
9157;DHT22;4613;48.392;9.998;2023-07-02T16:07:32;25.00;83.60
9157;DHT22;4613;48.392;9.998;2023-07-02T16:10:21;25.20;83.60
9157;DHT22;4613;48.392;9.998;2023-07-02T16:13:11;25.20;83.40
9157;DHT22;4613;48.392;9.998;2023-07-02T16:16:02;24.90;83.80
9157;DHT22;4613;48.392;9.998;2023-07-02T16:18:51;25.10;84.00
9157;DHT22;4613;48.392;9.998;2023-07-02T16:21:41;25.00;84.00
9157;DHT22;4613;48.392;9.998;2023-07-02T16:24:32;24.90;84.20
9157;DHT22;4613;48.392;9.998;2023-07-02T16:27:22;24.60;84.70
9157;DHT22;4613;48.392;9.998;2023-07-02T16:30:11;24.30;85.00
9157;DHT22;4613;48.392;9.998;2023-07-02T16:33:01;24.20;85.80
9157;DHT22;4613;48.392;9.998;2023-07-02T16:35:50;24.10;85.90
9157;DHT22;4613;48.392;9.998;2023-07-02T16:38:39;24.10;85.90
9157;DHT22;4613;48.392;9.998;2023-07-02T16:41:28;24.00;85.80
9157;DHT22;4613;48.392;9.998;2023-07-02T16:44:26;24.00;85.70
9157;DHT22;4613;48.392;9.998;2023-07-02T16:47:16;24.10;85.50
9157;DHT22;4613;48.392;9.998;2023-07-02T16:50:05;24.30;85.70
9157;DHT22;4613;48.392;9.998;2023-07-02T16:52:55;24.40;84.60
9157;DHT22;4613;48.392;9.998;2023-07-02T16:55:44;24.40;85.80
9157;DHT22;4613;48.392;9.998;2023-07-02T16:58:33;24.30;85.00
9157;DHT22;4613;48.392;9.998;2023-07-02T17:01:22;24.20;85.50
9157;DHT22;4613;48.392;9.998;2023-07-02T17:04:12;24.30;86.60
9157;DHT22;4613;48.392;9.998;2023-07-02T17:07:03;24.20;86.10
9157;DHT22;4613;48.392;9.998;2023-07-02T17:09:52;24.40;86.80
9157;DHT22;4613;48.392;9.998;2023-07-02T17:12:42;24.40;86.00
9157;DHT22;4613;48.392;9.998;2023-07-02T17:15:31;24.40;86.00
9157;DHT22;4613;48.392;9.998;2023-07-02T17:18:21;24.20;85.50
9157;DHT22;4613;48.392;9.998;2023-07-02T17:21:10;24.00;86.00
9157;DHT22;4613;48.392;9.998;2023-07-02T17:24:00;24.00;86.40
9157;DHT22;4613;48.392;9.998;2023-07-02T17:26:49;23.90;86.10
9157;DHT22;4613;48.392;9.998;2023-07-02T17:29:39;23.80;85.70
9157;DHT22;4613;48.392;9.998;2023-07-02T17:32:29;23.80;85.80
9157;DHT22;4613;48.392;9.998;2023-07-02T17:35:18;23.90;85.80
9157;DHT22;4613;48.392;9.998;2023-07-02T17:38:08;23.90;85.50
9157;DHT22;4613;48.392;9.998;2023-07-02T17:40:57;23.80;85.60
9157;DHT22;4613;48.392;9.998;2023-07-02T17:43:48;23.80;85.90
9157;DHT22;4613;48.392;9.998;2023-07-02T17:46:37;23.60;86.00
9157;DHT22;4613;48.392;9.998;2023-07-02T17:49:28;23.60;85.90
9157;DHT22;4613;48.392;9.998;2023-07-02T17:52:20;23.60;86.10
9157;DHT22;4613;48.392;9.998;2023-07-02T17:55:10;23.60;86.10
9157;DHT22;4613;48.392;9.998;2023-07-02T17:57:59;23.60;86.20
9157;DHT22;4613;48.392;9.998;2023-07-02T18:00:50;23.60;86.50
9157;DHT22;4613;48.392;9.998;2023-07-02T18:03:39;23.60;86.70
9157;DHT22;4613;48.392;9.998;2023-07-02T18:06:28;23.60;86.70
9157;DHT22;4613;48.392;9.998;2023-07-02T18:09:18;23.50;87.00
9157;DHT22;4613;48.392;9.998;2023-07-02T18:12:08;23.50;87.10
9157;DHT22;4613;48.392;9.998;2023-07-02T18:14:58;23.50;87.30
9157;DHT22;4613;48.392;9.998;2023-07-02T18:17:47;23.40;86.60
9157;DHT22;4613;48.392;9.998;2023-07-02T18:20:36;23.30;87.00
9157;DHT22;4613;48.392;9.998;2023-07-02T18:23:26;23.10;87.10
9157;DHT22;4613;48.392;9.998;2023-07-02T18:26:15;23.20;87.50
9157;DHT22;4613;48.392;9.998;2023-07-02T18:29:05;23.20;87.10
9157;DHT22;4613;48.392;9.998;2023-07-02T18:31:54;23.10;87.20